Highland Beach, Florida
Current Conditions -  °F | °C
As of 2:50 PM on Monday 22 Dec 2014 (Local Time) from KBCT Reporting Station
Clear Clear  
Wind Chill: 79°   Ceiling: Unl
Heat Index: 81°   Visibility: 10mi
Dew Point: 68°   Wind: 15mph
Humidity: 69%   Direction: 170°S
Pressure: 29.95"   Gusts: NA
Location:  26.4095°N, 80.0961°W
Report Text: KBCT 221950Z 17013KT 10SM CLR 26/20 A2995
Loading
Personal Weather Stations






























Interactive Weather Map New forecast layout! Learn more

10-Day Weather Forecast

Advertisements
Track Severe Weather on mobile